createdAt,value
2022-08-18T00:00:40.593Z,100.00
2022-08-18T00:01:48.640Z,100.00
2022-08-18T00:02:46.573Z,100.00
2022-08-18T00:04:03.389Z,100.00
2022-08-18T00:05:00.631Z,100.00
2022-08-18T00:05:58.942Z,100.00
2022-08-18T00:06:55.786Z,100.00
2022-08-18T00:07:52.536Z,100.00
2022-08-18T00:08:49.250Z,98.98
2022-08-18T00:09:51.115Z,100.00
2022-08-18T00:10:47.926Z,100.00
2022-08-18T00:11:45.357Z,100.00
2022-08-18T00:12:45.666Z,100.00
2022-08-18T00:13:42.365Z,100.00
2022-08-18T00:14:39.460Z,100.00
2022-08-18T00:15:41.708Z,100.00
2022-08-18T00:16:45.832Z,100.00
2022-08-18T00:17:43.493Z,100.00
2022-08-18T00:18:40.214Z,100.00
2022-08-18T00:19:46.472Z,99.91
2022-08-18T00:20:45.521Z,99.47
2022-08-18T00:21:42.262Z,100.00
2022-08-18T00:22:42.334Z,100.00
2022-08-18T00:23:39.242Z,100.00
2022-08-18T00:24:36.053Z,100.00
2022-08-18T00:25:45.574Z,100.00
2022-08-18T00:26:42.285Z,100.00
2022-08-18T00:27:43.790Z,100.00
2022-08-18T00:28:40.507Z,100.00
2022-08-18T00:29:37.281Z,100.00
2022-08-18T00:30:34.427Z,100.00
2022-08-18T00:31:31.649Z,100.00
2022-08-18T00:32:33.649Z,100.00
2022-08-18T00:33:30.540Z,100.00
2022-08-18T00:34:27.420Z,100.00
2022-08-18T00:35:38.314Z,100.00
2022-08-18T00:36:35.450Z,100.00
2022-08-18T00:37:32.802Z,100.00
2022-08-18T00:38:29.578Z,100.00
2022-08-18T00:39:26.387Z,100.00
2022-08-18T00:40:32.326Z,100.00
2022-08-18T00:41:31.347Z,100.00
2022-08-18T00:42:30.563Z,100.00
2022-08-18T00:43:45.092Z,100.00
2022-08-18T00:44:41.922Z,99.92
2022-08-18T00:45:42.681Z,100.00
2022-08-18T00:46:39.562Z,100.00
2022-08-18T00:47:42.979Z,100.00
2022-08-18T00:48:39.983Z,100.00
2022-08-18T00:49:52.625Z,100.00
2022-08-18T00:50:57.805Z,100.00
2022-08-18T00:51:56.713Z,100.00
2022-08-18T00:53:05.100Z,100.00
2022-08-18T00:54:17.500Z,100.00
2022-08-18T00:55:15.396Z,100.00
2022-08-18T00:56:22.352Z,100.00
2022-08-18T00:57:22.396Z,100.00
2022-08-18T00:58:27.599Z,100.00
2022-08-18T00:59:27.643Z,99.45
2022-08-18T01:00:24.698Z,98.80
2022-08-18T01:01:26.650Z,99.46
2022-08-18T01:02:30.165Z,100.00
2022-08-18T01:03:29.040Z,100.00
2022-08-18T01:04:37.092Z,100.00
2022-08-18T01:05:53.254Z,100.00
2022-08-18T01:07:01.987Z,100.00
2022-08-18T01:07:59.658Z,100.00
2022-08-18T01:08:56.483Z,100.00
2022-08-18T01:09:53.249Z,100.00
2022-08-18T01:10:50.862Z,100.00
2022-08-18T01:11:47.616Z,100.00
2022-08-18T01:12:47.091Z,100.00
2022-08-18T01:13:44.066Z,100.00
2022-08-18T01:14:41.447Z,100.00
2022-08-18T01:15:39.360Z,100.00
2022-08-18T01:16:56.918Z,100.00
2022-08-18T01:18:14.133Z,100.00
2022-08-18T01:19:29.606Z,100.00
2022-08-18T01:20:57.535Z,100.00
2022-08-18T01:22:11.977Z,100.00
2022-08-18T01:23:17.206Z,100.00
2022-08-18T01:24:18.528Z,100.00
2022-08-18T01:25:40.051Z,100.00
2022-08-18T01:26:50.087Z,100.00
2022-08-18T01:27:47.163Z,100.00
2022-08-18T01:28:46.463Z,100.00
2022-08-18T01:29:44.054Z,100.00
2022-08-18T01:30:53.235Z,100.00
2022-08-18T01:31:56.751Z,100.00
2022-08-18T01:32:54.263Z,100.00
2022-08-18T01:33:51.003Z,100.00
2022-08-18T01:34:49.873Z,100.00
2022-08-18T01:35:49.424Z,100.00
2022-08-18T01:36:46.370Z,100.00
2022-08-18T01:37:43.426Z,100.00
2022-08-18T01:38:40.599Z,100.00
2022-08-18T01:41:22.761Z,100.00
2022-08-18T01:41:23.807Z,100.00
2022-08-18T01:42:17.378Z,100.00
2022-08-18T01:43:15.247Z,100.00
2022-08-18T01:44:11.980Z,100.00
2022-08-18T01:45:10.091Z,100.00
2022-08-18T01:46:07.375Z,100.00
2022-08-18T01:47:04.360Z,100.00
2022-08-18T01:48:01.819Z,100.00
2022-08-18T01:49:00.706Z,100.00
2022-08-18T01:49:58.495Z,100.00
2022-08-18T01:50:56.970Z,100.00
2022-08-18T01:51:55.610Z,100.00
2022-08-18T01:52:53.616Z,100.00
2022-08-18T01:53:50.364Z,100.00
2022-08-18T01:54:48.721Z,100.00
2022-08-18T01:55:45.886Z,100.00
2022-08-18T01:56:43.630Z,100.00
2022-08-18T01:57:43.050Z,100.00
2022-08-18T01:58:39.859Z,100.00
2022-08-18T01:59:36.577Z,100.00
2022-08-18T02:00:35.358Z,100.00
2022-08-18T02:01:36.481Z,100.00
2022-08-18T02:02:33.994Z,100.00
2022-08-18T02:03:37.872Z,100.00
2022-08-18T02:04:37.128Z,100.00
2022-08-18T02:05:39.405Z,100.00
2022-08-18T02:06:37.410Z,100.00
2022-08-18T02:07:37.475Z,100.00
2022-08-18T02:08:34.237Z,100.00
2022-08-18T02:09:31.150Z,100.00
2022-08-18T02:10:27.877Z,100.00
2022-08-18T02:11:24.609Z,100.00
2022-08-18T02:12:21.344Z,100.00
2022-08-18T02:13:18.723Z,100.00
2022-08-18T02:14:15.458Z,100.00
2022-08-18T02:15:12.847Z,100.00
2022-08-18T02:16:09.619Z,100.00
2022-08-18T02:17:11.150Z,100.00
2022-08-18T02:18:14.724Z,100.00
2022-08-18T02:19:22.857Z,100.00
2022-08-18T02:20:20.047Z,100.00
2022-08-18T02:21:19.874Z,100.00
2022-08-18T02:22:20.396Z,100.00
2022-08-18T02:23:17.839Z,100.00
2022-08-18T02:24:14.556Z,100.00
2022-08-18T02:25:12.714Z,100.00
2022-08-18T02:26:12.588Z,100.00
2022-08-18T02:27:11.312Z,100.00
2022-08-18T02:28:08.223Z,100.00
2022-08-18T02:29:05.076Z,100.00
2022-08-18T02:30:07.103Z,100.00
2022-08-18T02:31:06.662Z,100.00
2022-08-18T02:32:04.180Z,100.00
2022-08-18T02:33:01.824Z,100.00
2022-08-18T02:33:59.608Z,100.00
2022-08-18T02:34:56.364Z,100.00
2022-08-18T02:35:55.879Z,100.00
2022-08-18T02:36:52.880Z,100.00
2022-08-18T02:37:49.731Z,100.00
2022-08-18T02:38:54.659Z,100.00
2022-08-18T02:39:57.371Z,100.00
2022-08-18T02:40:56.175Z,100.00
2022-08-18T02:41:53.518Z,100.00
2022-08-18T02:42:52.621Z,100.00
2022-08-18T02:43:49.871Z,100.00
2022-08-18T02:44:47.135Z,100.00
2022-08-18T02:45:43.913Z,100.00
2022-08-18T02:46:40.639Z,100.00
2022-08-18T02:47:37.436Z,100.00
2022-08-18T02:48:34.816Z,100.00
2022-08-18T02:49:31.584Z,100.00
2022-08-18T02:50:28.330Z,100.00
2022-08-18T02:51:25.745Z,100.00
2022-08-18T02:52:23.261Z,100.00
2022-08-18T02:53:22.811Z,100.00
2022-08-18T02:54:23.187Z,100.00
2022-08-18T02:55:20.178Z,100.00
2022-08-18T02:56:40.099Z,100.00
2022-08-18T02:57:45.868Z,100.00
2022-08-18T02:58:42.768Z,100.00
2022-08-18T02:59:40.884Z,100.00
2022-08-18T03:00:39.047Z,100.00
2022-08-18T03:01:39.440Z,100.00
2022-08-18T03:02:36.381Z,100.00
2022-08-18T03:03:33.204Z,100.00
2022-08-18T03:04:31.478Z,100.00
2022-08-18T03:05:30.359Z,100.00
2022-08-18T03:06:28.769Z,100.00
2022-08-18T03:07:25.501Z,100.00
2022-08-18T03:08:22.239Z,100.00
2022-08-18T03:09:19.253Z,100.00
2022-08-18T03:10:32.545Z,100.00
2022-08-18T03:11:30.756Z,100.00
2022-08-18T03:12:27.463Z,100.00
2022-08-18T03:13:24.334Z,100.00
2022-08-18T03:14:21.299Z,100.00
2022-08-18T03:15:18.610Z,100.00
2022-08-18T03:16:17.062Z,100.00
2022-08-18T03:17:15.030Z,100.00
2022-08-18T03:18:12.410Z,100.00
2022-08-18T03:19:09.469Z,100.00
2022-08-18T03:20:07.218Z,100.00
2022-08-18T03:21:07.930Z,100.00
2022-08-18T03:22:27.149Z,100.00
2022-08-18T03:23:30.109Z,100.00
2022-08-18T03:24:47.177Z,100.00
2022-08-18T03:25:49.440Z,100.00
2022-08-18T03:26:46.222Z,100.00
2022-08-18T03:27:42.978Z,100.00
2022-08-18T03:28:44.259Z,100.00
2022-08-18T03:29:40.980Z,100.00
2022-08-18T03:30:37.833Z,100.00
2022-08-18T03:31:36.178Z,100.00
2022-08-18T03:32:32.902Z,100.00
2022-08-18T03:33:29.944Z,100.00
2022-08-18T03:34:26.867Z,100.00
2022-08-18T03:35:23.584Z,100.00
2022-08-18T03:36:24.517Z,100.00
2022-08-18T03:37:21.536Z,100.00
2022-08-18T03:38:18.386Z,100.00
2022-08-18T03:39:15.360Z,100.00
2022-08-18T03:40:12.578Z,100.00
2022-08-18T03:41:15.574Z,100.00
2022-08-18T03:42:32.680Z,100.00
2022-08-18T03:43:51.439Z,100.00
2022-08-18T03:44:48.130Z,100.00
2022-08-18T03:45:45.194Z,100.00
2022-08-18T03:46:44.719Z,100.00
2022-08-18T03:47:41.501Z,100.00
2022-08-18T03:48:40.980Z,100.00
2022-08-18T03:49:38.643Z,100.00
2022-08-18T03:50:35.411Z,100.00
2022-08-18T03:51:32.969Z,100.00
2022-08-18T03:52:29.915Z,100.00
2022-08-18T03:53:26.698Z,100.00
2022-08-18T03:54:23.457Z,100.00
2022-08-18T03:55:20.331Z,100.00
2022-08-18T03:56:21.339Z,100.00
2022-08-18T03:57:18.141Z,100.00
2022-08-18T03:58:15.747Z,100.00
2022-08-18T03:59:18.108Z,100.00
2022-08-18T04:00:15.186Z,100.00
2022-08-18T04:01:15.901Z,100.00
2022-08-18T04:02:23.757Z,100.00
2022-08-18T04:03:20.602Z,100.00
2022-08-18T04:04:21.180Z,100.00
2022-08-18T04:05:18.167Z,100.00
2022-08-18T04:06:18.475Z,100.00
2022-08-18T04:07:27.163Z,100.00
2022-08-18T04:08:23.874Z,100.00
2022-08-18T04:09:22.919Z,100.00
2022-08-18T04:10:19.924Z,100.00
2022-08-18T04:11:16.830Z,100.00
2022-08-18T04:12:17.261Z,100.00
2022-08-18T04:13:14.297Z,100.00
2022-08-18T04:14:14.004Z,100.00
2022-08-18T04:15:11.753Z,100.00
2022-08-18T04:16:09.561Z,100.00
2022-08-18T04:17:07.211Z,100.00
2022-08-18T04:18:04.655Z,100.00
2022-08-18T04:19:04.001Z,100.00
2022-08-18T04:20:00.742Z,100.00
2022-08-18T04:21:02.054Z,100.00
2022-08-18T04:21:58.920Z,100.00
2022-08-18T04:22:56.013Z,100.00
2022-08-18T04:23:52.814Z,100.00
2022-08-18T04:24:50.357Z,100.00
2022-08-18T04:25:59.161Z,100.00
2022-08-18T04:26:57.450Z,100.00
2022-08-18T04:28:00.401Z,100.00
2022-08-18T04:28:57.268Z,100.00
2022-08-18T04:29:56.698Z,100.00
2022-08-18T04:30:54.933Z,100.00
2022-08-18T04:31:52.063Z,100.00
2022-08-18T04:32:49.067Z,100.00
2022-08-18T04:33:45.805Z,100.00
2022-08-18T04:34:42.622Z,100.00
2022-08-18T04:35:40.120Z,100.00
2022-08-18T04:36:37.668Z,100.00
2022-08-18T04:37:50.352Z,100.00
2022-08-18T04:38:47.243Z,100.00
2022-08-18T04:39:45.499Z,100.00
2022-08-18T04:40:42.638Z,100.00
2022-08-18T04:41:43.465Z,100.00
2022-08-18T04:42:43.276Z,100.00
2022-08-18T04:43:41.457Z,100.00
2022-08-18T04:44:38.342Z,100.00
2022-08-18T04:45:35.835Z,100.00
2022-08-18T04:46:40.072Z,100.00
2022-08-18T04:47:41.676Z,100.00
2022-08-18T04:48:41.232Z,100.00
2022-08-18T04:49:38.862Z,100.00
2022-08-18T04:50:37.405Z,100.00
2022-08-18T04:52:34.157Z,100.00
2022-08-18T04:53:09.588Z,100.00
2022-08-18T04:54:06.459Z,100.00
2022-08-18T04:55:04.292Z,100.00
2022-08-18T04:56:01.078Z,100.00
2022-08-18T04:56:57.861Z,100.00
2022-08-18T04:57:54.940Z,100.00
2022-08-18T04:58:56.144Z,100.00
2022-08-18T04:59:53.479Z,100.00
2022-08-18T05:01:01.339Z,100.00
2022-08-18T05:02:01.575Z,100.00
2022-08-18T05:02:58.299Z,100.00
2022-08-18T05:03:57.091Z,100.00
2022-08-18T05:04:53.869Z,100.00
2022-08-18T05:05:50.608Z,100.00
2022-08-18T05:06:47.480Z,100.00
2022-08-18T05:07:47.428Z,100.00
2022-08-18T05:08:44.218Z,100.00
2022-08-18T05:09:42.140Z,100.00
2022-08-18T05:10:40.418Z,100.00
2022-08-18T05:11:37.862Z,100.00
2022-08-18T05:12:35.312Z,100.00
2022-08-18T05:13:32.215Z,100.00
2022-08-18T05:14:29.026Z,100.00
2022-08-18T05:15:26.456Z,100.00
2022-08-18T05:16:27.411Z,100.00
2022-08-18T05:17:30.576Z,100.00
2022-08-18T05:18:27.909Z,100.00
2022-08-18T05:19:27.151Z,100.00
2022-08-18T05:20:25.403Z,100.00
2022-08-18T05:21:24.590Z,100.00
2022-08-18T05:22:26.281Z,100.00
2022-08-18T05:23:26.928Z,100.00
2022-08-18T05:24:26.796Z,100.00
2022-08-18T05:25:26.270Z,100.00
2022-08-18T05:26:23.147Z,100.00
2022-08-18T05:27:21.327Z,100.00
2022-08-18T05:28:18.244Z,100.00
2022-08-18T05:29:17.888Z,100.00
2022-08-18T05:30:16.759Z,100.00
2022-08-18T05:31:17.669Z,100.00
2022-08-18T05:32:38.352Z,100.00
2022-08-18T05:33:31.754Z,100.00
2022-08-18T05:34:28.547Z,100.00
2022-08-18T05:35:35.133Z,100.00
2022-08-18T05:36:43.484Z,100.00
2022-08-18T05:38:04.247Z,100.00
2022-08-18T05:39:21.477Z,100.00
2022-08-18T05:40:24.529Z,100.00
2022-08-18T05:41:35.051Z,100.00
2022-08-18T05:42:37.878Z,100.00
2022-08-18T05:43:36.683Z,100.00
2022-08-18T05:44:47.106Z,99.16
2022-08-18T05:45:44.166Z,99.55
2022-08-18T05:47:06.524Z,100.00
2022-08-18T05:48:03.608Z,100.00
2022-08-18T05:49:00.469Z,99.24
2022-08-18T05:50:08.102Z,98.38
2022-08-18T05:51:23.477Z,97.35
2022-08-18T05:52:30.317Z,96.69
2022-08-18T05:53:49.237Z,95.41
2022-08-18T05:55:11.301Z,95.43
2022-08-18T05:56:32.045Z,100.00
2022-08-18T05:57:38.825Z,97.07
2022-08-18T05:58:44.131Z,94.05
2022-08-18T05:59:43.472Z,92.50
2022-08-18T06:00:48.353Z,90.04
2022-08-18T06:01:52.629Z,89.51
2022-08-18T06:03:08.723Z,88.98
2022-08-18T06:04:19.404Z,88.60
2022-08-18T06:05:25.674Z,88.46
2022-08-18T06:06:30.384Z,88.85
2022-08-18T06:07:42.051Z,87.77
2022-08-18T06:08:47.023Z,86.57
2022-08-18T06:09:51.076Z,87.27
2022-08-18T06:10:49.632Z,87.38
2022-08-18T06:11:47.277Z,86.52
2022-08-18T06:12:52.146Z,85.54
2022-08-18T06:13:49.937Z,85.37
2022-08-18T06:14:50.110Z,85.75
2022-08-18T06:15:58.845Z,87.75
2022-08-18T06:16:58.299Z,89.23
2022-08-18T06:18:23.073Z,89.20
2022-08-18T06:19:51.792Z,86.86
2022-08-18T06:21:00.809Z,90.51
2022-08-18T06:22:04.514Z,91.14
2022-08-18T06:23:32.553Z,91.03
2022-08-18T06:25:03.325Z,91.11
2022-08-18T06:26:15.097Z,90.32
2022-08-18T06:27:14.652Z,89.78
2022-08-18T06:28:17.217Z,88.10
2022-08-18T06:29:28.959Z,87.29
2022-08-18T06:30:47.250Z,86.51
2022-08-18T06:32:11.529Z,87.34
2022-08-18T06:33:39.449Z,88.54
2022-08-18T06:34:57.040Z,88.39
2022-08-18T06:36:02.595Z,85.98
2022-08-18T06:37:11.342Z,87.90
2022-08-18T06:38:45.559Z,86.09
2022-08-18T06:39:49.937Z,85.66
2022-08-18T06:40:48.639Z,86.93
2022-08-18T06:41:50.058Z,86.39
2022-08-18T06:42:48.066Z,85.32
2022-08-18T06:44:03.224Z,83.57
2022-08-18T06:45:12.752Z,85.39
2022-08-18T06:46:19.465Z,83.30
2022-08-18T06:47:49.448Z,82.47
2022-08-18T06:49:03.700Z,83.68
2022-08-18T06:50:28.793Z,84.20
2022-08-18T06:51:28.336Z,83.81
2022-08-18T06:52:32.145Z,82.42
2022-08-18T06:54:03.953Z,82.21
2022-08-18T06:55:11.497Z,81.55
2022-08-18T06:56:37.707Z,80.25
2022-08-18T06:57:52.919Z,79.10
2022-08-18T06:58:53.389Z,80.25
2022-08-18T07:00:22.318Z,81.18
2022-08-18T07:01:19.765Z,81.00
2022-08-18T07:02:40.694Z,80.96
2022-08-18T07:03:37.904Z,77.12
2022-08-18T07:04:44.345Z,77.45
2022-08-18T07:06:05.427Z,77.71
2022-08-18T07:07:29.761Z,76.94
2022-08-18T07:08:43.394Z,75.46
2022-08-18T07:09:40.343Z,75.79
2022-08-18T07:10:47.229Z,75.00
2022-08-18T07:11:58.843Z,75.66
2022-08-18T07:13:30.141Z,73.22
2022-08-18T07:14:28.590Z,74.32
2022-08-18T07:15:25.470Z,73.90
2022-08-18T07:16:57.092Z,71.84
2022-08-18T07:17:51.065Z,72.66
2022-08-18T07:18:47.891Z,71.70
2022-08-18T07:19:44.710Z,73.51
2022-08-18T07:20:54.466Z,72.13
2022-08-18T07:22:13.720Z,71.38
2022-08-18T07:23:26.561Z,71.56
2022-08-18T07:24:31.263Z,70.64
2022-08-18T07:25:50.586Z,70.12
2022-08-18T07:27:15.441Z,69.54
2022-08-18T07:28:48.719Z,69.78
2022-08-18T07:30:06.929Z,68.69
2022-08-18T07:31:18.347Z,67.92
2022-08-18T07:32:21.827Z,67.68
2022-08-18T07:33:25.906Z,67.85
2022-08-18T07:34:33.398Z,66.78
2022-08-18T07:35:49.705Z,66.51
2022-08-18T07:36:55.032Z,66.28
2022-08-18T07:38:00.582Z,65.79
2022-08-18T07:39:18.958Z,64.76
2022-08-18T07:40:38.350Z,65.32
2022-08-18T07:41:49.128Z,65.67
2022-08-18T07:43:00.808Z,65.65
2022-08-18T07:44:40.466Z,64.71
2022-08-18T07:45:42.739Z,63.65
2022-08-18T07:46:51.102Z,63.97
2022-08-18T07:48:21.024Z,63.69
2022-08-18T07:49:26.392Z,63.36
2022-08-18T07:50:57.556Z,63.25
2022-08-18T07:51:53.119Z,62.48
2022-08-18T07:53:08.890Z,61.03
2022-08-18T07:54:47.860Z,61.03
2022-08-18T07:55:48.375Z,60.44
2022-08-18T07:57:19.208Z,59.45
2022-08-18T07:58:37.654Z,59.63
2022-08-18T07:59:39.565Z,59.53
2022-08-18T08:01:13.442Z,56.39
2022-08-18T08:02:22.549Z,54.41
2022-08-18T08:03:28.083Z,54.04
2022-08-18T08:04:56.876Z,53.52
2022-08-18T08:06:18.604Z,53.94
2022-08-18T08:07:25.183Z,53.04
2022-08-18T08:08:40.450Z,53.02
2022-08-18T08:10:02.045Z,51.67
2022-08-18T08:11:14.076Z,50.05
2022-08-18T08:12:31.128Z,49.92
2022-08-18T08:14:07.200Z,48.86
2022-08-18T08:15:13.831Z,49.68
2022-08-18T08:16:18.736Z,49.79
2022-08-18T08:17:23.588Z,50.24
2022-08-18T08:18:23.089Z,49.36
2022-08-18T08:19:49.406Z,49.47
2022-08-18T08:20:56.396Z,48.26
2022-08-18T08:22:08.494Z,49.15
2022-08-18T08:23:32.063Z,48.92
2022-08-18T08:24:40.511Z,48.34
2022-08-18T08:26:14.021Z,48.55
2022-08-18T08:27:41.707Z,48.88
2022-08-18T08:28:41.166Z,48.65
2022-08-18T08:30:02.883Z,48.64
2022-08-18T08:31:13.487Z,48.17
2022-08-18T08:32:30.951Z,48.39
2022-08-18T08:34:22.926Z,48.01
2022-08-18T08:35:48.965Z,46.66
2022-08-18T08:36:50.750Z,48.04
2022-08-18T08:38:36.714Z,46.87
2022-08-18T08:39:33.720Z,46.75
2022-08-18T08:40:47.953Z,46.15
2022-08-18T08:41:52.150Z,46.68
2022-08-18T08:43:00.758Z,45.71
2022-08-18T08:44:06.565Z,45.87
2022-08-18T08:45:21.180Z,45.04
2022-08-18T08:46:25.491Z,44.66
2022-08-18T08:47:34.495Z,44.88
2022-08-18T08:48:36.724Z,44.22
2022-08-18T08:49:43.772Z,45.02
2022-08-18T08:51:03.685Z,45.54
2022-08-18T08:52:07.408Z,45.12
2022-08-18T08:53:22.439Z,44.89
2022-08-18T08:54:27.727Z,45.39
2022-08-18T08:55:35.697Z,44.40
2022-08-18T08:56:43.100Z,43.88
2022-08-18T08:57:50.404Z,44.97
2022-08-18T08:59:00.243Z,44.80
2022-08-18T09:00:03.179Z,45.61
2022-08-18T09:01:02.110Z,44.48
2022-08-18T09:02:47.754Z,45.65
2022-08-18T09:04:24.690Z,44.48
2022-08-18T09:05:40.108Z,43.53
2022-08-18T09:07:09.565Z,44.96
2022-08-18T09:08:27.592Z,44.07
2022-08-18T09:09:45.813Z,44.19
2022-08-18T09:10:51.508Z,44.87
2022-08-18T09:12:21.293Z,45.13
2022-08-18T09:13:29.252Z,44.98
2022-08-18T09:14:44.682Z,44.76
2022-08-18T09:16:27.759Z,45.32
2022-08-18T09:17:45.966Z,44.04
2022-08-18T09:19:13.800Z,44.68
2022-08-18T09:20:17.338Z,43.79
2022-08-18T09:21:40.477Z,43.60
2022-08-18T09:22:53.957Z,43.16
2022-08-18T09:24:05.271Z,43.22
2022-08-18T09:25:02.711Z,43.26
2022-08-18T09:26:22.448Z,42.42
2022-08-18T09:28:09.463Z,41.72
2022-08-18T09:29:13.133Z,41.93
2022-08-18T09:30:38.664Z,41.68
2022-08-18T09:31:36.628Z,42.23
2022-08-18T09:32:55.211Z,41.90
2022-08-18T09:34:12.923Z,42.03
2022-08-18T09:35:24.858Z,40.81
2022-08-18T09:36:32.272Z,41.95
2022-08-18T09:38:29.368Z,41.47
2022-08-18T09:39:54.834Z,41.43
2022-08-18T09:41:24.405Z,41.68
2022-08-18T09:42:56.021Z,41.49
2022-08-18T09:44:17.950Z,41.22
2022-08-18T09:45:33.256Z,41.70
2022-08-18T09:46:43.730Z,41.67
2022-08-18T09:47:43.301Z,41.89
2022-08-18T09:48:45.344Z,42.00
2022-08-18T09:49:47.686Z,41.44
2022-08-18T09:50:58.844Z,41.62
2022-08-18T09:51:58.731Z,40.93
2022-08-18T09:53:37.196Z,40.79
2022-08-18T09:54:52.788Z,41.16
2022-08-18T09:56:00.714Z,40.32
2022-08-18T09:57:19.628Z,41.21
2022-08-18T09:58:26.402Z,41.07
2022-08-18T09:59:38.083Z,40.49
2022-08-18T10:00:35.102Z,41.05
2022-08-18T10:01:39.844Z,41.29
2022-08-18T10:02:37.094Z,41.02
2022-08-18T10:03:33.928Z,41.16
2022-08-18T10:04:51.586Z,40.99
2022-08-18T10:07:43.460Z,38.65
2022-08-18T10:08:50.338Z,40.23
2022-08-18T10:10:02.289Z,39.51
2022-08-18T10:11:47.852Z,40.15
2022-08-18T10:12:58.994Z,40.00
2022-08-18T10:14:39.627Z,40.77
2022-08-18T10:16:21.802Z,39.60
2022-08-18T10:19:33.687Z,39.56
2022-08-18T10:20:50.633Z,40.29
2022-08-18T10:21:58.332Z,39.19
2022-08-18T10:22:57.402Z,38.38
2022-08-18T10:24:14.563Z,38.11
2022-08-18T10:25:22.639Z,38.04
2022-08-18T10:26:31.707Z,37.85
2022-08-18T10:27:46.691Z,37.18
2022-08-18T10:30:31.093Z,37.46
2022-08-18T10:33:18.143Z,38.18
2022-08-18T10:34:35.324Z,38.76
2022-08-18T10:35:37.691Z,38.57
2022-08-18T10:36:47.843Z,38.62
2022-08-18T10:37:50.754Z,39.15
2022-08-18T10:38:53.310Z,38.36
2022-08-18T10:39:55.898Z,36.79
2022-08-18T10:41:15.486Z,37.43
2022-08-18T10:42:21.402Z,35.94
2022-08-18T10:43:55.578Z,35.88
2022-08-18T10:45:06.044Z,36.62
2022-08-18T10:46:24.902Z,36.21
2022-08-18T10:47:33.696Z,35.63
2022-08-18T10:48:34.471Z,35.80
2022-08-18T10:49:34.008Z,34.93
2022-08-18T10:50:43.462Z,35.21
2022-08-18T10:52:08.974Z,35.95
2022-08-18T10:53:39.330Z,35.71
2022-08-18T10:55:22.685Z,35.74
2022-08-18T10:56:32.933Z,36.26
2022-08-18T10:58:07.195Z,36.56
2022-08-18T10:59:29.228Z,36.27
2022-08-18T11:00:37.517Z,36.47
2022-08-18T11:01:55.581Z,36.57
2022-08-18T11:03:51.679Z,36.99
2022-08-18T11:04:58.879Z,34.78
2022-08-18T11:06:18.139Z,34.28
2022-08-18T11:07:25.801Z,34.81
2022-08-18T11:08:25.549Z,34.92
2022-08-18T11:09:28.232Z,34.24
2022-08-18T11:10:57.712Z,35.10
2022-08-18T11:12:01.414Z,35.17
2022-08-18T11:13:03.258Z,35.16
2022-08-18T11:14:40.676Z,35.20
2022-08-18T11:15:46.300Z,35.13
2022-08-18T11:17:01.363Z,35.44
2022-08-18T11:18:30.215Z,34.85
2022-08-18T11:19:27.759Z,35.59
2022-08-18T11:20:49.148Z,35.23
2022-08-18T11:21:52.463Z,35.72
2022-08-18T11:23:01.947Z,36.00
2022-08-18T11:24:11.098Z,35.84
2022-08-18T11:25:22.982Z,34.80
2022-08-18T11:26:20.152Z,34.47
2022-08-18T11:27:27.410Z,35.02
2022-08-18T11:28:30.644Z,34.76
2022-08-18T11:29:41.423Z,35.57
2022-08-18T11:30:45.067Z,35.83
2022-08-18T11:31:43.842Z,35.74
2022-08-18T11:32:51.994Z,36.12
2022-08-18T11:33:51.266Z,36.13
2022-08-18T11:34:53.981Z,35.78
2022-08-18T11:35:58.107Z,35.29
2022-08-18T11:37:01.601Z,36.22
2022-08-18T11:38:04.450Z,36.05
2022-08-18T11:39:01.692Z,35.87
2022-08-18T11:40:07.329Z,35.69
2022-08-18T11:41:19.406Z,36.76
2022-08-18T11:42:21.880Z,36.91
2022-08-18T11:44:47.177Z,35.34
2022-08-18T11:45:44.125Z,35.16
2022-08-18T11:46:42.978Z,35.38
2022-08-18T11:48:35.858Z,35.65
2022-08-18T11:49:54.883Z,35.68
2022-08-18T11:50:55.275Z,35.63
2022-08-18T11:52:26.316Z,35.51
2022-08-18T11:53:32.813Z,35.13
2022-08-18T11:54:50.649Z,35.33
2022-08-18T11:57:58.651Z,35.59
2022-08-18T11:59:09.228Z,35.05
2022-08-18T12:00:43.624Z,35.03
2022-08-18T12:01:52.073Z,35.43
2022-08-18T12:02:49.058Z,35.39
2022-08-18T12:03:49.490Z,36.19
2022-08-18T12:04:53.070Z,36.51
2022-08-18T12:05:56.005Z,36.51
2022-08-18T12:06:56.183Z,36.93
2022-08-18T12:07:57.899Z,37.76
2022-08-18T12:09:04.216Z,36.62
2022-08-18T12:10:19.991Z,36.48
2022-08-18T12:11:31.414Z,36.33
2022-08-18T12:12:32.585Z,36.30
2022-08-18T12:13:30.281Z,36.34
2022-08-18T12:15:48.386Z,36.26
2022-08-18T12:16:46.359Z,35.65
2022-08-18T12:17:52.148Z,35.57
2022-08-18T12:18:49.833Z,35.87
2022-08-18T12:19:51.826Z,35.57
2022-08-18T12:20:49.529Z,35.79
2022-08-18T12:22:18.537Z,34.96
2022-08-18T12:23:15.393Z,36.45
2022-08-18T12:24:26.262Z,35.62
2022-08-18T12:25:25.887Z,35.78
2022-08-18T12:26:38.187Z,36.79
2022-08-18T12:27:35.692Z,35.44
2022-08-18T12:28:32.447Z,35.39
2022-08-18T12:29:36.652Z,35.58
2022-08-18T12:30:42.273Z,35.25
2022-08-18T12:31:42.525Z,35.00
2022-08-18T12:34:02.813Z,35.05
2022-08-18T12:35:05.335Z,35.90
2022-08-18T12:36:05.903Z,35.48
2022-08-18T12:37:10.282Z,36.13
2022-08-18T12:38:20.588Z,35.46
2022-08-18T12:39:18.192Z,35.13
2022-08-18T12:40:17.308Z,35.05
2022-08-18T12:41:18.620Z,35.58
2022-08-18T12:42:20.500Z,34.51
2022-08-18T12:43:17.301Z,34.70
2022-08-18T12:44:15.155Z,34.26
2022-08-18T12:45:15.292Z,34.68
2022-08-18T12:46:12.508Z,34.85
2022-08-18T12:47:16.528Z,35.08
2022-08-18T12:48:13.428Z,35.12
2022-08-18T12:49:23.722Z,35.90
2022-08-18T12:50:20.596Z,36.22
2022-08-18T12:51:30.674Z,35.63
2022-08-18T12:52:27.699Z,34.94
2022-08-18T12:53:30.088Z,34.48
2022-08-18T12:54:55.169Z,34.99
2022-08-18T12:55:52.739Z,34.80
2022-08-18T12:56:54.297Z,35.40
2022-08-18T12:57:53.303Z,35.59
2022-08-18T12:58:51.815Z,36.37
2022-08-18T12:59:48.644Z,35.83
2022-08-18T13:00:46.629Z,35.25
2022-08-18T13:01:43.564Z,35.05
2022-08-18T13:02:42.191Z,34.93
2022-08-18T13:03:42.612Z,34.52
2022-08-18T13:04:39.818Z,34.62
2022-08-18T13:05:38.071Z,34.41
2022-08-18T13:06:40.692Z,34.22
2022-08-18T13:07:37.592Z,34.10
2022-08-18T13:08:38.070Z,34.42
2022-08-18T13:09:48.536Z,35.03
2022-08-18T13:10:51.299Z,34.24
2022-08-18T13:11:53.464Z,34.41
2022-08-18T13:12:50.522Z,35.27
2022-08-18T13:13:53.072Z,34.89
2022-08-18T13:14:55.196Z,36.17
2022-08-18T13:15:58.667Z,35.05
2022-08-18T13:16:58.145Z,35.85
2022-08-18T13:17:55.757Z,35.98
2022-08-18T13:18:54.433Z,35.24
2022-08-18T13:19:51.547Z,35.09
2022-08-18T13:20:52.493Z,34.60
2022-08-18T13:21:49.603Z,34.19
2022-08-18T13:22:46.678Z,34.74
2022-08-18T13:23:46.990Z,34.99
2022-08-18T13:24:45.619Z,34.60
2022-08-18T13:25:44.291Z,34.91
2022-08-18T13:26:47.479Z,34.48
2022-08-18T13:27:46.311Z,34.53
2022-08-18T13:28:50.062Z,34.94
2022-08-18T13:29:54.189Z,34.02
2022-08-18T13:30:50.926Z,34.34
2022-08-18T13:31:55.493Z,34.19
2022-08-18T13:33:02.179Z,34.45
2022-08-18T13:34:03.723Z,35.19
2022-08-18T13:35:02.695Z,34.51
2022-08-18T13:36:06.016Z,34.67
2022-08-18T13:37:02.769Z,34.19
2022-08-18T13:37:59.656Z,34.28
2022-08-18T13:38:56.800Z,34.05
2022-08-18T13:39:53.567Z,34.26
2022-08-18T13:40:51.604Z,35.03
2022-08-18T13:41:52.134Z,35.00
2022-08-18T13:43:01.215Z,34.16
2022-08-18T13:43:58.231Z,34.72
2022-08-18T13:45:24.937Z,34.32
2022-08-18T13:46:19.767Z,34.68
2022-08-18T13:47:32.051Z,34.85
2022-08-18T13:48:35.238Z,34.56
2022-08-18T13:49:32.316Z,33.90
2022-08-18T13:50:29.992Z,34.85
2022-08-18T13:51:26.847Z,35.16
2022-08-18T13:52:34.857Z,34.54
2022-08-18T13:53:34.307Z,33.99
2022-08-18T13:54:35.494Z,34.51
2022-08-18T13:55:32.491Z,34.73
2022-08-18T13:56:31.267Z,34.18
2022-08-18T13:57:28.574Z,34.60
2022-08-18T13:58:27.178Z,34.91
2022-08-18T13:59:24.431Z,34.75
2022-08-18T14:00:29.726Z,34.93
2022-08-18T14:01:51.348Z,35.30
2022-08-18T14:02:48.014Z,34.47
2022-08-18T14:03:47.595Z,34.93
2022-08-18T14:04:44.562Z,34.53
2022-08-18T14:05:51.435Z,34.20